Khoy Airport

Airport
ICAO code: 
OITK
IATA Code: 
KHY
Summary
ICAO Region: 
MID
Territory: 
Location: 
Azab, West Azerbaijan Province
Serving: 
Khoy
Elevation: 
3981 ft
Coordinates: 
Aerial View: 
38° 25' 15.196" N, 44° 58' 22.494" E
Metar
Observation
OITK 251200Z 13017KT 9999 FEW035TCU SCT040 BKN190 34/09 Q1004
Station
Khoy
Date/Time
2022-06-25 12:00:00
Wind direction
130°
Wind speed
17 kts
Lowest cloud amount
few clouds
Temperature
34°C
Dew point
9°C
Humidity
21%
QNH
1004 hPa
Weather condition
n/a

Airport 12km south of the city of Khoy, Iran.

Climatology

Semi-arid climate (Köppen climate classification BSk).

Runways

Designator Length Width Surface Rops
15/33 2801 30 ASP No/No
Airport map: 
Aerial View: 

SKYbrary Partners:

Safety knowledge contributed by: